Accueil
METAR-TAF:

METAR-TAF

Aéroports :

Aéroport de Milan-Linate

Milan, Italie

latitude: 45-26N, longitude: 009-17E, altitude: 107 m

Observation

Le bulletin a été fait il y a 30 minutes, à 12:50 UTC
Vent 2 kt de direction variable
Température 4°C
Humidité 81%
Pression 1006 hPa
Visibilité: 8000 m
Nuages épars à une hauteur de 1000 ft
Nuages épars à une hauteur de 3000 ft

METAR: LIML 121250Z VRB02KT 8000 SCT010 SCT030 04/01 Q1006 NOSIG

Heure: 14:20 (13:20 UTC)

Prévision

Le bulletin a été fait il y a 2 heures et 20 minutes, à 11:00 UTC
Prévision valable du 12 à 12 UTC au 13 à 12 UTC
Vent 5 kt de direction variable
Visibilité: 5000 m
Nuages épars à une hauteur de 800 ft
Nuages fragmentés à une hauteur de 5000 ft
brume
Evoluant progressivement
du 13 à 00 UTC au 13 à 03 UTC
Visibilité: 1000 m
Ciel couvert à une hauteur de 500 ft
neige

TAF: LIML 121100Z 1212/1312 VRB05KT 5000 BR SCT008 BKN050 BECMG 1300/1303 1000 SN OVC005

Observations et prévisions météorologiques de plus de 4000 aéroports (messages METAR et TAF).

Les stations disponibles sont représentées par des disques jaunes et rouges sur la carte.

Passer la souris dessus pour voir le nom de la station.

Cliquer dessus pour voir les observations et prévisions météorologiques.

Pour changer de carte: cliquez sur les boutons verts avec une croix noire pour zoomer, sur le bouton vert avec un tiret pour effectuer un zoom arrière, ou sur les flèches vertes pour les cartes adjacentes.


METAR-TAF: